Time;durP1;ratioP1;P1;durP2;ratioP2;P2;SDS_P1;SDS_P2;PMS_P1;PMS_P2;Temp;Humidity;BMP_temperature;BMP_pressure;BME280_temperature;BME280_humidity;BME280_pressure;Samples;Min_cycle;Max_cycle;Signal;HPM_P1;HPM_P2
2022/09/29 00:00:27;;;;;;;0.10;0.10;;;;;;;;;;5038738;28;20384;-75
2022/09/29 00:02:54;;;;;;;0.10;0.10;;;;;;;;;;5071059;28;20275;-77
2022/09/29 00:05:20;;;;;;;0.10;0.10;;;;;;;;;;5037802;28;20277;-76
2022/09/29 00:07:47;;;;;;;0.10;0.10;;;;;;;;;;5071476;28;20230;-76
2022/09/29 00:10:14;;;;;;;0.10;0.10;;;;;;;;;;5036239;28;20393;-77
2022/09/29 00:12:41;;;;;;;0.10;0.10;;;;;;;;;;5073052;28;20220;-77
2022/09/29 00:15:09;;;;;;;0.10;0.10;;;;;;;;;;5034325;28;20275;-76
2022/09/29 00:17:35;;;;;;;0.10;0.10;;;;;;;;;;5074550;28;20227;-77
2022/09/29 00:20:02;;;;;;;0.10;0.10;;;;;;;;;;5043971;28;20251;-76
2022/09/29 00:22:28;;;;;;;0.10;0.10;;;;;;;;;;5065453;28;20446;-75
2022/09/29 00:24:55;;;;;;;0.10;0.10;;;;;;;;;;5043566;28;20559;-77
2022/09/29 00:27:22;;;;;;;0.10;0.10;;;;;;;;;;5065320;28;20402;-76
2022/09/29 00:29:49;;;;;;;0.10;0.10;;;;;;;;;;5043353;28;20231;-78
2022/09/29 00:32:16;;;;;;;0.10;0.10;;;;;;;;;;5065244;28;20243;-77
2022/09/29 00:34:42;;;;;;;0.10;0.10;;;;;;;;;;5043317;28;20372;-76
2022/09/29 00:37:08;;;;;;;0.10;0.10;;;;;;;;;;5065359;28;20310;-77
2022/09/29 00:39:35;;;;;;;0.10;0.10;;;;;;;;;;5043155;28;20201;-75
2022/09/29 00:42:01;;;;;;;0.10;0.10;;;;;;;;;;5063877;28;20245;-77
2022/09/29 00:44:46;;;;;;;0.10;0.10;;;;;;;;;;5044169;28;20417;-77
2022/09/29 00:47:15;;;;;;;0.10;0.10;;;;;;;;;;5065032;28;20554;-76
2022/09/29 00:49:43;;;;;;;0.10;0.10;;;;;;;;;;5042962;28;20277;-77
2022/09/29 00:52:12;;;;;;;0.10;0.10;;;;;;;;;;5064959;28;20439;-76
2022/09/29 00:54:41;;;;;;;0.10;0.10;;;;;;;;;;5042932;28;20534;-77
2022/09/29 00:57:08;;;;;;;0.10;0.10;;;;;;;;;;5065023;28;20235;-77
2022/09/29 00:59:39;;;;;;;0.10;0.10;;;;;;;;;;5042222;28;20442;-76
2022/09/29 01:02:06;;;;;;;0.10;0.10;;;;;;;;;;5065005;28;20247;-77
2022/09/29 01:04:34;;;;;;;0.10;0.10;;;;;;;;;;5042833;28;20235;-76
2022/09/29 01:07:00;;;;;;;0.97;0.97;;;;;;;;;;5063314;28;20249;-76
2022/09/29 01:09:28;;;;;;;0.10;0.10;;;;;;;;;;5043952;28;20248;-76
2022/09/29 01:11:57;;;;;;;0.10;0.10;;;;;;;;;;5062110;28;20239;-77
2022/09/29 01:14:23;;;;;;;0.10;0.10;;;;;;;;;;5044944;28;20232;-77
2022/09/29 01:16:50;;;;;;;0.10;0.10;;;;;;;;;;5060429;28;20245;-77
2022/09/29 01:19:18;;;;;;;0.10;0.10;;;;;;;;;;5047066;28;20205;-78
2022/09/29 01:21:51;;;;;;;0.10;0.10;;;;;;;;;;5059180;28;20276;-77
2022/09/29 01:24:41;;;;;;;0.10;0.10;;;;;;;;;;5046806;28;20210;-76
2022/09/29 01:27:13;;;;;;;0.10;0.10;;;;;;;;;;5064611;28;20497;-77
2022/09/29 01:29:50;;;;;;;0.10;0.10;;;;;;;;;;5043019;28;20414;-77
2022/09/29 01:32:21;;;;;;;0.10;0.10;;;;;;;;;;5064504;28;20269;-76
2022/09/29 01:34:53;;;;;;;0.10;0.10;;;;;;;;;;5042789;28;20203;-77
2022/09/29 01:37:24;;;;;;;0.10;0.10;;;;;;;;;;5064438;28;20492;-76
2022/09/29 01:39:54;;;;;;;0.10;0.10;;;;;;;;;;5042673;28;20215;-76
2022/09/29 01:42:23;;;;;;;0.10;0.10;;;;;;;;;;5064316;28;20246;-76
2022/09/29 01:44:51;;;;;;;0.13;0.13;;;;;;;;;;5042663;28;20235;-77
2022/09/29 01:47:21;;;;;;;0.10;0.10;;;;;;;;;;5064162;28;20245;-76
2022/09/29 01:49:50;;;;;;;0.10;0.10;;;;;;;;;;5042561;28;20441;-77
2022/09/29 01:52:18;;;;;;;0.10;0.10;;;;;;;;;;5064141;28;20252;-78
2022/09/29 01:54:47;;;;;;;0.10;0.10;;;;;;;;;;5042555;28;20280;-76
2022/09/29 01:57:16;;;;;;;0.10;0.10;;;;;;;;;;5064183;28;20383;-77
2022/09/29 01:59:45;;;;;;;0.10;0.10;;;;;;;;;;5042172;28;20230;-77
2022/09/29 02:02:14;;;;;;;0.10;0.10;;;;;;;;;;5064209;28;20249;-77
2022/09/29 02:04:43;;;;;;;0.10;0.10;;;;;;;;;;5042384;28;20214;-76
2022/09/29 02:07:13;;;;;;;0.10;0.10;;;;;;;;;;5063698;28;20241;-76
2022/09/29 02:09:41;;;;;;;0.10;0.10;;;;;;;;;;5042435;28;20418;-77
2022/09/29 02:12:08;;;;;;;0.10;0.10;;;;;;;;;;5068214;28;20262;-77
2022/09/29 02:14:36;;;;;;;0.10;0.10;;;;;;;;;;5045948;28;20208;-76
2022/09/29 02:17:06;;;;;;;0.10;0.10;;;;;;;;;;5067242;28;20407;-77
2022/09/29 02:19:34;;;;;;;0.10;0.10;;;;;;;;;;5045744;28;20201;-77
2022/09/29 02:22:02;;;;;;;0.10;0.10;;;;;;;;;;5066259;28;20238;-77
2022/09/29 02:24:28;;;;;;;0.20;0.20;;;;;;;;;;5046893;28;20206;-77
2022/09/29 02:26:55;;;;;;;0.10;0.10;;;;;;;;;;5064913;28;20242;-77
2022/09/29 02:29:22;;;;;;;0.13;0.13;;;;;;;;;;5048003;28;20229;-75
2022/09/29 02:31:49;;;;;;;0.10;0.10;;;;;;;;;;5062980;28;20296;-76
2022/09/29 02:34:17;;;;;;;0.10;0.10;;;;;;;;;;5050171;28;20207;-77
2022/09/29 02:36:50;;;;;;;0.10;0.10;;;;;;;;;;5061698;28;20419;-76
2022/09/29 02:39:26;;;;;;;0.10;0.10;;;;;;;;;;5049854;28;20366;-77
2022/09/29 02:41:56;;;;;;;0.10;0.10;;;;;;;;;;5064215;28;20287;-77
2022/09/29 02:44:34;;;;;;;0.10;0.10;;;;;;;;;;5047641;28;20193;-76
2022/09/29 02:47:14;;;;;;;0.10;0.10;;;;;;;;;;5066108;28;20313;-76
2022/09/29 02:49:49;;;;;;;0.10;0.10;;;;;;;;;;5045590;28;20377;-77
2022/09/29 02:52:18;;;;;;;0.10;0.10;;;;;;;;;;5067447;28;20258;-76
2022/09/29 02:54:54;;;;;;;0.10;0.10;;;;;;;;;;5045259;28;20207;-77
2022/09/29 02:57:26;;;;;;;0.10;0.10;;;;;;;;;;5067178;28;20373;-77
2022/09/29 02:59:57;;;;;;;0.10;0.10;;;;;;;;;;5045310;28;20308;-76
2022/09/29 03:02:24;;;;;;;0.10;0.10;;;;;;;;;;5067190;28;20584;-77
2022/09/29 03:04:51;;;;;;;0.10;0.10;;;;;;;;;;5044902;28;20212;-77
2022/09/29 03:07:17;;;;;;;0.10;0.10;;;;;;;;;;5066884;28;20325;-77
2022/09/29 03:09:44;;;;;;;0.10;0.10;;;;;;;;;;5044910;28;20235;-77
2022/09/29 03:12:11;;;;;;;0.10;0.10;;;;;;;;;;5066912;28;20264;-77
2022/09/29 03:14:38;;;;;;;0.10;0.10;;;;;;;;;;5044868;28;20223;-77
2022/09/29 03:17:04;;;;;;;0.10;0.10;;;;;;;;;;5066780;28;20481;-76
2022/09/29 03:19:31;;;;;;;0.17;0.17;;;;;;;;;;5045016;28;20485;-76
2022/09/29 03:21:57;;;;;;;0.10;0.10;;;;;;;;;;5063876;28;20245;-77
2022/09/29 03:24:26;;;;;;;0.10;0.10;;;;;;;;;;5046610;28;20197;-77
2022/09/29 03:26:53;;;;;;;0.10;0.10;;;;;;;;;;5063356;28;20247;-76
2022/09/29 03:29:20;;;;;;;0.10;0.10;;;;;;;;;;5047517;28;20229;-77
2022/09/29 03:31:47;;;;;;;0.10;0.10;;;;;;;;;;5061260;28;20238;-77
2022/09/29 03:34:13;;;;;;;0.10;0.10;;;;;;;;;;5050022;28;20204;-76
2022/09/29 03:36:40;;;;;;;0.10;0.10;;;;;;;;;;5059698;28;20250;-77
2022/09/29 03:39:06;;;;;;;0.10;0.10;;;;;;;;;;5051278;28;20239;-76
2022/09/29 03:41:33;;;;;;;0.10;0.10;;;;;;;;;;5057766;28;20247;-76
2022/09/29 03:44:02;;;;;;;0.10;0.10;;;;;;;;;;5053037;28;20211;-78
2022/09/29 03:46:29;;;;;;;0.10;0.10;;;;;;;;;;5056432;28;20240;-77
2022/09/29 03:48:56;;;;;;;0.10;0.10;;;;;;;;;;5053522;28;20230;-76
2022/09/29 03:51:24;;;;;;;0.10;0.10;;;;;;;;;;5054884;28;20356;-77
2022/09/29 03:53:51;;;;;;;0.10;0.10;;;;;;;;;;5054764;28;20465;-77
2022/09/29 03:56:17;;;;;;;0.10;0.10;;;;;;;;;;5052382;28;20239;-76
2022/09/29 03:58:43;;;;;;;0.10;0.10;;;;;;;;;;5057440;28;20548;-77
2022/09/29 04:01:10;;;;;;;0.10;0.10;;;;;;;;;;5048383;28;20248;-77
2022/09/29 04:03:38;;;;;;;0.10;0.10;;;;;;;;;;5060988;28;20374;-76
2022/09/29 04:06:04;;;;;;;0.10;0.10;;;;;;;;;;5046603;28;20276;-76
2022/09/29 04:08:31;;;;;;;0.10;0.10;;;;;;;;;;5062489;28;20543;-76
2022/09/29 04:10:59;;;;;;;0.10;0.10;;;;;;;;;;5047226;28;20242;-77
2022/09/29 04:13:25;;;;;;;0.10;0.10;;;;;;;;;;5061669;28;20212;-77
2022/09/29 04:15:54;;;;;;;0.20;0.20;;;;;;;;;;5046243;28;20449;-77
2022/09/29 04:18:20;;;;;;;0.10;0.10;;;;;;;;;;5062504;28;20264;-76
2022/09/29 04:20:48;;;;;;;0.10;0.10;;;;;;;;;;5044712;28;20297;-76
2022/09/29 04:23:14;;;;;;;0.10;0.10;;;;;;;;;;5064525;28;20193;-77
2022/09/29 04:25:40;;;;;;;0.10;0.10;;;;;;;;;;5042869;28;20289;-77
2022/09/29 04:28:07;;;;;;;0.10;0.10;;;;;;;;;;5066014;28;20205;-77
2022/09/29 04:30:33;;;;;;;0.10;0.10;;;;;;;;;;5040778;28;20480;-76
2022/09/29 04:32:59;;;;;;;0.10;0.10;;;;;;;;;;5067223;28;20231;-78
2022/09/29 04:35:26;;;;;;;0.10;0.10;;;;;;;;;;5070599;28;20292;-77
2022/09/29 04:37:57;;;;;;;0.37;0.37;;;;;;;;;;5069519;28;20217;-79
2022/09/29 04:40:23;;;;;;;0.10;0.10;;;;;;;;;;5037772;28;20271;-76
2022/09/29 04:42:50;;;;;;;0.10;0.10;;;;;;;;;;5070267;28;20227;-77
2022/09/29 04:45:16;;;;;;;0.10;0.10;;;;;;;;;;5036271;28;20214;-77
2022/09/29 04:47:42;;;;;;;0.10;0.10;;;;;;;;;;5071897;28;20211;-69
2022/09/29 04:50:09;;;;;;;0.10;0.10;;;;;;;;;;5034094;28;20224;-71
2022/09/29 04:52:35;;;;;;;0.17;0.17;;;;;;;;;;5073813;28;20488;-70
2022/09/29 04:55:10;;;;;;;0.10;0.10;;;;;;;;;;5043193;28;20374;-71
2022/09/29 04:57:36;;;;;;;0.10;0.10;;;;;;;;;;5031700;28;20218;-71
2022/09/29 05:00:03;;;;;;;0.10;0.10;;;;;;;;;;5043079;28;20380;-71
2022/09/29 05:02:29;;;;;;;0.10;0.10;;;;;;;;;;5064693;28;20439;-71
2022/09/29 05:04:56;;;;;;;0.10;0.10;;;;;;;;;;5043120;28;20210;-71
2022/09/29 05:07:22;;;;;;;0.10;0.10;;;;;;;;;;5064787;28;20261;-71
2022/09/29 05:09:48;;;;;;;0.10;0.10;;;;;;;;;;5042440;28;20307;-71
2022/09/29 05:12:16;;;;;;;0.10;0.10;;;;;;;;;;5064550;28;20246;-72
2022/09/29 05:14:42;;;;;;;0.10;0.10;;;;;;;;;;5042745;28;20272;-71
2022/09/29 05:17:09;;;;;;;0.20;0.20;;;;;;;;;;5064519;28;20239;-70
2022/09/29 05:19:35;;;;;;;0.10;0.10;;;;;;;;;;5042795;28;20351;-70
2022/09/29 05:22:02;;;;;;;0.10;0.10;;;;;;;;;;5063073;28;20245;-71
2022/09/29 05:24:28;;;;;;;0.10;0.10;;;;;;;;;;5043392;28;20264;-71
2022/09/29 05:26:54;;;;;;;0.10;0.10;;;;;;;;;;5061349;28;20286;-70
2022/09/29 05:29:22;;;;;;;0.10;0.10;;;;;;;;;;5045233;28;20208;-71
2022/09/29 05:31:48;;;;;;;0.10;0.10;;;;;;;;;;5059881;28;20288;-72
2022/09/29 05:34:15;;;;;;;0.10;0.10;;;;;;;;;;5046867;28;20208;-70
2022/09/29 05:36:41;;;;;;;0.10;0.10;;;;;;;;;;5057649;28;20245;-70
2022/09/29 05:39:08;;;;;;;0.10;0.10;;;;;;;;;;5048705;28;20207;-70
2022/09/29 05:41:34;;;;;;;0.10;0.10;;;;;;;;;;5055736;28;20267;-70
2022/09/29 05:44:01;;;;;;;0.10;0.10;;;;;;;;;;5050731;28;20428;-71
2022/09/29 05:46:28;;;;;;;0.10;0.10;;;;;;;;;;5060296;28;20238;-71
2022/09/29 05:48:57;;;;;;;0.10;0.10;;;;;;;;;;5059071;28;20510;-70
2022/09/29 05:51:25;;;;;;;0.10;0.10;;;;;;;;;;5059293;28;20241;-70
2022/09/29 05:53:55;;;;;;;0.10;0.10;;;;;;;;;;5059567;28;20255;-71
2022/09/29 05:56:22;;;;;;;0.10;0.10;;;;;;;;;;5058776;28;20270;-71
2022/09/29 05:58:48;;;;;;;0.10;0.10;;;;;;;;;;5060095;28;20225;-71
2022/09/29 06:01:15;;;;;;;0.13;0.13;;;;;;;;;;5056082;28;20247;-70
2022/09/29 06:03:43;;;;;;;0.10;0.10;;;;;;;;;;5063170;28;20254;-71
2022/09/29 06:06:11;;;;;;;0.10;0.10;;;;;;;;;;5055716;28;20261;-70
2022/09/29 06:08:37;;;;;;;0.10;0.10;;;;;;;;;;5063397;28;20388;-71
2022/09/29 06:11:04;;;;;;;0.10;0.10;;;;;;;;;;5054327;28;20237;-71
2022/09/29 06:13:31;;;;;;;0.10;0.10;;;;;;;;;;5064669;28;20418;-72
2022/09/29 06:15:58;;;;;;;0.10;0.10;;;;;;;;;;5052429;28;20308;-70
2022/09/29 06:18:24;;;;;;;0.10;0.10;;;;;;;;;;5066356;28;20245;-71
2022/09/29 06:20:52;;;;;;;0.10;0.10;;;;;;;;;;5050988;28;20593;-71
2022/09/29 06:23:18;;;;;;;0.10;0.10;;;;;;;;;;5067835;28;20210;-70
2022/09/29 06:25:44;;;;;;;0.10;0.10;;;;;;;;;;5049181;28;20252;-71
2022/09/29 06:28:10;;;;;;;0.10;0.10;;;;;;;;;;5070082;28;20208;-71
2022/09/29 06:30:37;;;;;;;0.10;0.10;;;;;;;;;;5046855;28;20283;-71
2022/09/29 06:33:03;;;;;;;0.10;0.10;;;;;;;;;;5071986;28;20249;-70
2022/09/29 06:38:15;;;;;;;0.20;0.20;;;;;;;;;;5069113;28;20206;-71
2022/09/29 06:40:42;;;;;;;0.10;0.10;;;;;;;;;;5048127;28;20323;-71
2022/09/29 06:43:10;;;;;;;0.10;0.10;;;;;;;;;;5070280;28;20207;-70
2022/09/29 06:45:36;;;;;;;0.10;0.10;;;;;;;;;;5046517;28;20298;-71
2022/09/29 06:48:03;;;;;;;0.10;0.10;;;;;;;;;;5059455;28;20220;-71
2022/09/29 06:50:29;;;;;;;0.10;0.10;;;;;;;;;;5044821;28;20565;-71
2022/09/29 06:52:57;;;;;;;0.10;0.10;;;;;;;;;;5073743;28;20206;-70
2022/09/29 06:55:25;;;;;;;0.10;0.10;;;;;;;;;;5075503;28;20246;-70
2022/09/29 06:57:52;;;;;;;0.10;0.10;;;;;;;;;;5070765;28;20291;-71
2022/09/29 07:00:18;;;;;;;0.10;0.10;;;;;;;;;;5038590;28;20231;-71
2022/09/29 07:02:45;;;;;;;0.10;0.10;;;;;;;;;;5073373;28;20206;-71
2022/09/29 07:05:11;;;;;;;0.10;0.10;;;;;;;;;;5036327;28;20229;-71
2022/09/29 07:07:37;;;;;;;0.10;0.10;;;;;;;;;;5075196;28;20234;-71
2022/09/29 07:10:04;;;;;;;0.17;0.17;;;;;;;;;;5044822;28;20287;-71
2022/09/29 07:12:32;;;;;;;0.10;0.10;;;;;;;;;;5033384;28;20470;-72
2022/09/29 07:14:58;;;;;;;0.10;0.10;;;;;;;;;;5045053;28;20214;-70
2022/09/29 07:17:24;;;;;;;0.10;0.10;;;;;;;;;;5066849;28;20241;-71
2022/09/29 07:19:51;;;;;;;0.10;0.10;;;;;;;;;;5045005;28;20213;-71
2022/09/29 07:22:17;;;;;;;0.10;0.10;;;;;;;;;;5066666;28;20323;-70
2022/09/29 07:24:45;;;;;;;0.10;0.10;;;;;;;;;;5044552;28;20212;-70
2022/09/29 07:27:11;;;;;;;0.10;0.10;;;;;;;;;;5066312;28;20249;-71
2022/09/29 07:29:39;;;;;;;0.10;0.10;;;;;;;;;;5044364;28;20443;-71
2022/09/29 07:32:05;;;;;;;0.10;0.10;;;;;;;;;;5066341;28;20241;-71
2022/09/29 07:34:33;;;;;;;0.10;0.10;;;;;;;;;;5044587;28;20208;-70
2022/09/29 07:36:59;;;;;;;0.10;0.10;;;;;;;;;;5064819;28;20242;-68
2022/09/29 07:39:25;;;;;;;0.10;0.10;;;;;;;;;;5045911;28;20515;-70
2022/09/29 07:41:52;;;;;;;0.13;0.13;;;;;;;;;;5062757;28;20239;-71
2022/09/29 07:44:18;;;;;;;0.10;0.10;;;;;;;;;;5047924;28;20278;-71
2022/09/29 07:46:48;;;;;;;0.10;0.10;;;;;;;;;;5060609;28;20245;-70
2022/09/29 07:49:15;;;;;;;0.10;0.10;;;;;;;;;;5048627;28;20207;-71
2022/09/29 07:51:41;;;;;;;0.10;0.10;;;;;;;;;;5059491;28;20240;-71
2022/09/29 07:54:07;;;;;;;0.10;0.10;;;;;;;;;;5050718;28;20207;-71
2022/09/29 07:56:34;;;;;;;0.10;0.10;;;;;;;;;;5057608;28;20239;-71
2022/09/29 07:59:02;;;;;;;0.10;0.10;;;;;;;;;;5051838;28;20219;-71
2022/09/29 08:01:28;;;;;;;0.10;0.10;;;;;;;;;;5056138;28;20245;-71
2022/09/29 08:03:56;;;;;;;0.10;0.10;;;;;;;;;;5053267;28;20208;-70
2022/09/29 08:06:23;;;;;;;0.10;0.10;;;;;;;;;;5054286;28;20256;-71
2022/09/29 08:08:49;;;;;;;0.10;0.10;;;;;;;;;;5054922;28;20207;-71
2022/09/29 08:11:16;;;;;;;0.10;0.10;;;;;;;;;;5052343;28;20402;-70
2022/09/29 08:13:44;;;;;;;0.10;0.10;;;;;;;;;;5056709;28;20275;-71
2022/09/29 08:16:11;;;;;;;0.10;0.10;;;;;;;;;;5050909;28;20441;-70
2022/09/29 08:18:38;;;;;;;0.10;0.10;;;;;;;;;;5057686;28;20454;-71
2022/09/29 08:21:06;;;;;;;0.10;0.10;;;;;;;;;;5048951;28;20241;-70
2022/09/29 08:23:35;;;;;;;0.10;0.10;;;;;;;;;;5059593;28;20217;-71
2022/09/29 08:26:12;;;;;;;0.10;0.10;;;;;;;;;;5048142;28;20241;-71
2022/09/29 08:28:39;;;;;;;0.10;0.10;;;;;;;;;;5057133;28;20370;-71
2022/09/29 08:31:06;;;;;;;0.10;0.10;;;;;;;;;;5049074;28;20250;-71
2022/09/29 08:33:33;;;;;;;0.10;0.10;;;;;;;;;;5058923;28;20512;-70
2022/09/29 08:36:02;;;;;;;0.20;0.20;;;;;;;;;;5047481;28;20243;-72
2022/09/29 08:38:33;;;;;;;0.10;0.10;;;;;;;;;;5060097;28;20204;-71
2022/09/29 08:41:04;;;;;;;0.10;0.10;;;;;;;;;;5047623;28;20239;-71
2022/09/29 08:43:33;;;;;;;0.10;0.10;;;;;;;;;;5058982;28;20251;-72
2022/09/29 08:46:02;;;;;;;0.10;0.10;;;;;;;;;;5046978;28;20261;-71
2022/09/29 08:48:31;;;;;;;0.10;0.10;;;;;;;;;;5059886;28;20276;-71
2022/09/29 08:50:59;;;;;;;0.10;0.10;;;;;;;;;;5046250;28;20265;-70
2022/09/29 08:53:26;;;;;;;0.20;0.20;;;;;;;;;;5061056;28;20204;-71
2022/09/29 08:55:55;;;;;;;0.10;0.10;;;;;;;;;;5045320;28;20325;-70
2022/09/29 08:58:21;;;;;;;0.10;0.10;;;;;;;;;;5061530;28;20229;-70
2022/09/29 09:00:53;;;;;;;0.10;0.10;;;;;;;;;;5043988;28;20250;-69
2022/09/29 09:03:32;;;;;;;0.10;0.10;;;;;;;;;;5061968;28;20215;-71
2022/09/29 09:06:09;;;;;;;0.10;0.10;;;;;;;;;;5047192;28;20302;-70
2022/09/29 09:08:42;;;;;;;0.10;0.10;;;;;;;;;;5057344;28;20204;-70
2022/09/29 09:11:19;;;;;;;0.10;0.10;;;;;;;;;;5049721;28;20520;-71
2022/09/29 09:13:54;;;;;;;0.10;0.10;;;;;;;;;;5054928;28;20203;-71
2022/09/29 09:16:25;;;;;;;0.10;0.10;;;;;;;;;;5052480;28;20266;-71
2022/09/29 09:19:03;;;;;;;0.10;0.10;;;;;;;;;;5053216;28;20193;-71
2022/09/29 09:21:37;;;;;;;0.10;0.10;;;;;;;;;;5054538;28;20236;-70
2022/09/29 09:24:05;;;;;;;0.10;0.10;;;;;;;;;;5050259;28;20232;-71
2022/09/29 09:26:37;;;;;;;0.10;0.10;;;;;;;;;;5055636;28;20247;-71
2022/09/29 09:29:05;;;;;;;0.10;0.10;;;;;;;;;;5050285;28;20200;-70
2022/09/29 09:31:39;;;;;;;0.10;0.10;;;;;;;;;;5055234;28;20298;-71
2022/09/29 09:34:07;;;;;;;0.10;0.10;;;;;;;;;;5049508;28;20193;-71
2022/09/29 09:36:35;;;;;;;0.10;0.10;;;;;;;;;;5055702;28;20259;-71
2022/09/29 09:39:04;;;;;;;0.10;0.10;;;;;;;;;;5050445;28;20293;-72
2022/09/29 09:41:32;;;;;;;0.10;0.10;;;;;;;;;;5055025;28;20325;-73
2022/09/29 09:44:02;;;;;;;0.10;0.10;;;;;;;;;;5051257;28;20271;-71
2022/09/29 09:46:30;;;;;;;0.10;0.10;;;;;;;;;;5054042;28;20240;-72
2022/09/29 09:49:00;;;;;;;0.20;0.20;;;;;;;;;;5051727;28;20209;-71
2022/09/29 09:51:33;;;;;;;0.10;0.10;;;;;;;;;;5053650;28;20313;-71
2022/09/29 09:54:03;;;;;;;0.10;0.10;;;;;;;;;;5051041;28;20204;-71
2022/09/29 09:56:37;;;;;;;0.10;0.10;;;;;;;;;;5054598;28;20249;-71
2022/09/29 09:59:10;;;;;;;0.10;0.10;;;;;;;;;;5049302;28;20234;-70
2022/09/29 10:01:36;;;;;;;0.10;0.10;;;;;;;;;;5056092;28;20285;-70
2022/09/29 10:04:05;;;;;;;0.10;0.10;;;;;;;;;;5049895;28;20217;-70
2022/09/29 10:06:32;;;;;;;0.10;0.10;;;;;;;;;;5054766;28;20548;-72
2022/09/29 10:08:58;;;;;;;0.10;0.10;;;;;;;;;;5050992;28;20511;-71
2022/09/29 10:11:26;;;;;;;0.10;0.10;;;;;;;;;;5052825;28;20548;-70
2022/09/29 10:13:56;;;;;;;0.10;0.10;;;;;;;;;;5052536;28;20223;-71
2022/09/29 10:16:27;;;;;;;0.10;0.10;;;;;;;;;;5052362;28;20434;-70
2022/09/29 10:18:54;;;;;;;0.10;0.10;;;;;;;;;;5052196;28;20451;-78
2022/09/29 10:21:22;;;;;;;0.10;0.10;;;;;;;;;;5051527;28;20257;-76
2022/09/29 10:23:52;;;;;;;0.10;0.10;;;;;;;;;;5053205;28;20200;-78
2022/09/29 10:26:19;;;;;;;0.10;0.10;;;;;;;;;;5050970;28;20562;-76
2022/09/29 10:28:50;;;;;;;0.10;0.10;;;;;;;;;;5053998;28;20211;-76
2022/09/29 10:31:18;;;;;;;0.10;0.10;;;;;;;;;;5050432;28;20264;-75
2022/09/29 10:33:54;;;;;;;0.10;0.10;;;;;;;;;;5057811;28;20209;-77
2022/09/29 10:36:21;;;;;;;0.10;0.10;;;;;;;;;;5055346;28;20241;-77
2022/09/29 10:38:49;;;;;;;0.10;0.10;;;;;;;;;;5056711;28;20281;-72
2022/09/29 10:41:18;;;;;;;0.10;0.10;;;;;;;;;;5070314;28;20419;-72
2022/09/29 10:43:44;;;;;;;0.10;0.10;;;;;;;;;;5051300;28;20282;-72
2022/09/29 10:46:26;;;;;;;0.10;0.10;;;;;;;;;;5052730;28;20240;-70
2022/09/29 10:49:08;;;;;;;0.10;0.10;;;;;;;;;;5055498;28;20203;-72
2022/09/29 10:51:34;;;;;;;0.10;0.10;;;;;;;;;;5058822;28;20231;-73
2022/09/29 10:54:07;;;;;;;0.10;0.10;;;;;;;;;;5053676;28;20278;-71
2022/09/29 10:56:33;;;;;;;0.10;0.10;;;;;;;;;;5058855;28;20636;-70
2022/09/29 10:59:01;;;;;;;0.10;0.10;;;;;;;;;;5053139;28;20224;-71
2022/09/29 11:01:30;;;;;;;0.10;0.10;;;;;;;;;;5057081;28;20240;-71
2022/09/29 11:04:00;;;;;;;0.10;0.10;;;;;;;;;;5054464;28;20204;-71
2022/09/29 11:06:29;;;;;;;0.10;0.10;;;;;;;;;;5056219;28;20623;-72
2022/09/29 11:09:00;;;;;;;0.10;0.10;;;;;;;;;;5055188;28;20220;-71
2022/09/29 11:11:27;;;;;;;0.10;0.10;;;;;;;;;;5056160;28;20322;-70
2022/09/29 11:13:54;;;;;;;0.10;0.10;;;;;;;;;;5054870;28;20205;-70
2022/09/29 11:16:26;;;;;;;0.07;0.07;;;;;;;;;;5054473;28;20239;-71
2022/09/29 11:18:56;;;;;;;0.10;0.10;;;;;;;;;;5055457;28;20200;-71
2022/09/29 11:21:37;;;;;;;0.10;0.10;;;;;;;;;;5054987;28;20235;-71
2022/09/29 11:24:06;;;;;;;0.10;0.10;;;;;;;;;;5035400;28;20224;-70
2022/09/29 11:26:36;;;;;;;0.10;0.10;;;;;;;;;;5057707;28;20485;-70
2022/09/29 11:29:09;;;;;;;0.10;0.10;;;;;;;;;;5051985;28;20232;-70
2022/09/29 11:31:40;;;;;;;0.10;0.10;;;;;;;;;;5058402;28;20235;-70
2022/09/29 11:34:36;;;;;;;0.10;0.10;;;;;;;;;;5050867;28;20239;-70
2022/09/29 11:37:15;;;;;;;0.10;0.10;;;;;;;;;;5065706;28;20239;-69
2022/09/29 11:39:46;;;;;;;0.10;0.10;;;;;;;;;;5044545;28;20204;-71
2022/09/29 11:42:27;;;;;;;0.10;0.10;;;;;;;;;;5065971;28;20238;-70
2022/09/29 11:45:01;;;;;;;0.10;0.10;;;;;;;;;;5044065;28;20193;-70
2022/09/29 11:47:40;;;;;;;0.10;0.10;;;;;;;;;;5066410;28;20241;-70
2022/09/29 11:50:12;;;;;;;0.10;0.10;;;;;;;;;;5035380;28;20264;-70
2022/09/29 11:52:46;;;;;;;0.10;0.10;;;;;;;;;;5073966;28;20307;-70
2022/09/29 11:55:31;;;;;;;0.10;0.10;;;;;;;;;;5035820;28;20201;-70
2022/09/29 11:58:04;;;;;;;0.10;0.10;;;;;;;;;;5068851;28;20276;-70
2022/09/29 12:00:37;;;;;;;0.10;0.10;;;;;;;;;;5040011;28;20289;-70
2022/09/29 12:03:19;;;;;;;0.10;0.10;;;;;;;;;;5067684;28;20392;-70
2022/09/29 12:05:53;;;;;;;0.10;0.10;;;;;;;;;;5044718;28;20249;-70
2022/09/29 12:08:25;;;;;;;0.10;0.10;;;;;;;;;;5062786;28;20379;-70
2022/09/29 12:10:54;;;;;;;0.10;0.10;;;;;;;;;;5046036;28;20322;-70
2022/09/29 12:13:28;;;;;;;0.00;0.00;;;;;;;;;;5061994;28;20231;-70
2022/09/29 12:15:56;;;;;;;0.10;0.10;;;;;;;;;;5046779;28;20261;-70
2022/09/29 12:18:25;;;;;;;0.10;0.10;;;;;;;;;;5062052;28;20259;-70
2022/09/29 12:20:52;;;;;;;0.10;0.10;;;;;;;;;;5045364;28;20246;-70
2022/09/29 12:23:21;;;;;;;0.10;0.10;;;;;;;;;;5063222;28;20202;-71
2022/09/29 12:25:52;;;;;;;0.10;0.10;;;;;;;;;;5044686;28;20658;-66
2022/09/29 12:28:20;;;;;;;0.10;0.10;;;;;;;;;;5062993;28;20507;-68
2022/09/29 12:30:50;;;;;;;0.10;0.10;;;;;;;;;;5044320;28;20250;-67
2022/09/29 12:33:20;;;;;;;0.10;0.10;;;;;;;;;;5063678;28;20251;-67
2022/09/29 12:35:51;;;;;;;0.10;0.10;;;;;;;;;;5044331;28;20351;-67
2022/09/29 12:38:19;;;;;;;0.10;0.10;;;;;;;;;;5063262;28;20207;-68
2022/09/29 12:40:48;;;;;;;0.10;0.10;;;;;;;;;;5044202;28;20252;-67
2022/09/29 12:43:17;;;;;;;0.10;0.10;;;;;;;;;;5063588;28;20529;-67
2022/09/29 12:45:48;;;;;;;0.10;0.10;;;;;;;;;;5043523;28;20534;-66
2022/09/29 12:48:32;;;;;;;0.10;0.10;;;;;;;;;;5063784;28;20209;-66
2022/09/29 12:51:02;;;;;;;0.10;0.10;;;;;;;;;;5046963;28;20360;-67
2022/09/29 12:53:31;;;;;;;0.10;0.10;;;;;;;;;;5060161;28;20541;-67
2022/09/29 12:55:59;;;;;;;0.10;0.10;;;;;;;;;;5045950;28;20242;-67
2022/09/29 12:58:30;;;;;;;0.10;0.10;;;;;;;;;;5060578;28;20239;-66
2022/09/29 13:00:58;;;;;;;0.10;0.10;;;;;;;;;;5046750;28;20239;-66
2022/09/29 13:03:37;;;;;;;0.00;0.00;;;;;;;;;;5060658;28;20201;-65
2022/09/29 13:06:14;;;;;;;0.10;0.10;;;;;;;;;;5048578;28;20341;-66
2022/09/29 13:08:48;;;;;;;0.10;0.10;;;;;;;;;;5056870;28;20210;-66
2022/09/29 13:11:23;;;;;;;0.10;0.10;;;;;;;;;;5051053;28;20278;-66
2022/09/29 13:14:02;;;;;;;0.10;0.10;;;;;;;;;;5054249;28;20198;-66
2022/09/29 13:16:34;;;;;;;0.10;0.10;;;;;;;;;;5054800;28;20262;-66
2022/09/29 13:19:22;;;;;;;0.10;0.10;;;;;;;;;;5050787;28;20200;-67
2022/09/29 13:21:56;;;;;;;0.10;0.10;;;;;;;;;;5059727;28;20261;-67
2022/09/29 13:24:31;;;;;;;0.10;0.10;;;;;;;;;;5045668;28;20263;-68
2022/09/29 13:27:07;;;;;;;0.10;0.10;;;;;;;;;;5062556;28;20237;-66
2022/09/29 13:29:37;;;;;;;0.10;0.10;;;;;;;;;;5042331;28;20196;-66
2022/09/29 13:32:03;;;;;;;0.10;0.10;;;;;;;;;;5063197;28;20238;-67
2022/09/29 13:34:30;;;;;;;0.10;0.10;;;;;;;;;;5043577;28;20523;-67
2022/09/29 13:37:12;;;;;;;0.10;0.10;;;;;;;;;;5062156;28;20483;-67
2022/09/29 13:39:41;;;;;;;0.10;0.10;;;;;;;;;;5042574;28;20436;-67
2022/09/29 13:42:25;;;;;;;0.10;0.10;;;;;;;;;;5064471;28;20245;-66
2022/09/29 13:45:06;;;;;;;0.10;0.10;;;;;;;;;;5042291;28;20227;-67
2022/09/29 13:47:34;;;;;;;0.10;0.10;;;;;;;;;;5030594;28;20436;-68
2022/09/29 13:50:03;;;;;;;0.10;0.10;;;;;;;;;;5042517;28;20509;-68
2022/09/29 13:52:39;;;;;;;0.10;0.10;;;;;;;;;;5064393;28;20442;-68
2022/09/29 13:55:20;;;;;;;0.10;0.10;;;;;;;;;;5040300;28;20248;-68
2022/09/29 13:57:51;;;;;;;0.10;0.10;;;;;;;;;;5042509;28;20214;-68
2022/09/29 14:00:20;;;;;;;0.10;0.10;;;;;;;;;;5035478;28;20204;-68
2022/09/29 14:02:50;;;;;;;0.10;0.10;;;;;;;;;;5070239;28;20201;-69
2022/09/29 14:05:35;;;;;;;0.10;0.10;;;;;;;;;;5035508;28;20346;-75
2022/09/29 14:08:14;;;;;;;0.10;0.10;;;;;;;;;;5070204;28;20208;-74
2022/09/29 14:10:42;;;;;;;0.10;0.10;;;;;;;;;;5044716;28;20239;-74
2022/09/29 14:13:12;;;;;;;0.10;0.10;;;;;;;;;;5068770;28;20560;-74
2022/09/29 14:15:43;;;;;;;0.10;0.10;;;;;;;;;;5044940;28;20268;-74
2022/09/29 14:18:17;;;;;;;0.10;0.10;;;;;;;;;;5067900;28;20305;-75
2022/09/29 14:20:57;;;;;;;0.10;0.10;;;;;;;;;;5045883;28;20259;-75
2022/09/29 14:23:41;;;;;;;0.10;0.10;;;;;;;;;;5064127;28;20206;-74
2022/09/29 14:26:40;;;;;;;0.10;0.10;;;;;;;;;;5052128;28;20243;-71
2022/09/29 14:29:12;;;;;;;0.10;0.10;;;;;;;;;;5052594;28;20281;-71
2022/09/29 14:31:39;;;;;;;0.10;0.10;;;;;;;;;;5060613;28;20307;-72
2022/09/29 14:34:05;;;;;;;0.10;0.10;;;;;;;;;;5052778;28;20222;-71
2022/09/29 14:36:33;;;;;;;0.10;0.10;;;;;;;;;;5058828;28;20260;-72
2022/09/29 14:38:59;;;;;;;0.10;0.10;;;;;;;;;;5054053;28;20513;-71
2022/09/29 14:41:31;;;;;;;0.10;0.10;;;;;;;;;;5056755;28;20281;-71
2022/09/29 14:43:59;;;;;;;0.10;0.10;;;;;;;;;;5054953;28;20205;-71
2022/09/29 14:52:45;;;;;;;0.10;0.10;;;;;;;;;;4965011;28;20293;-71
2022/09/29 14:55:16;;;;;;;0.10;0.10;;;;;;;;;;4955344;28;20267;-71
2022/09/29 14:57:52;;;;;;;0.10;0.10;;;;;;;;;;5014115;28;20463;-70
2022/09/29 15:00:19;;;;;;;0.10;0.10;;;;;;;;;;5038938;28;20194;-71
2022/09/29 15:02:48;;;;;;;0.10;0.10;;;;;;;;;;5073274;28;20279;-71
2022/09/29 15:05:23;;;;;;;0.10;0.10;;;;;;;;;;5037885;28;20207;-69